createdAt,value
2019-04-22T00:00:36.175Z,11.08
2019-04-22T00:05:51.083Z,11.18
2019-04-22T00:10:47.160Z,11.48
2019-04-22T00:15:39.478Z,11.00
2019-04-22T00:20:43.650Z,10.63
2019-04-22T00:25:43.913Z,10.82
2019-04-22T00:30:28.087Z,10.60
2019-04-22T00:35:30.547Z,10.95
2019-04-22T00:40:32.299Z,10.95
2019-04-22T00:45:38.970Z,10.95
2019-04-22T00:50:19.019Z,10.40
2019-04-22T01:00:13.338Z,10.78
2019-04-22T01:05:09.826Z,11.10
2019-04-22T01:10:09.297Z,10.70
2019-04-22T01:15:00.899Z,11.03
2019-04-22T01:19:56.264Z,10.90
2019-04-22T01:24:48.637Z,10.68
2019-04-22T01:29:37.988Z,10.18
2019-04-22T01:34:33.602Z,11.20
2019-04-22T01:39:37.525Z,11.08
2019-04-22T01:44:40.996Z,10.60
2019-04-22T01:49:34.425Z,11.40
2019-04-22T01:54:35.373Z,11.65
2019-04-22T01:59:15.435Z,10.87
2019-04-22T02:04:30.374Z,11.20
2019-04-22T02:14:13.287Z,11.43
2019-04-22T02:19:11.454Z,10.70
2019-04-22T02:24:20.028Z,11.97
2019-04-22T02:28:55.198Z,11.53
2019-04-22T02:54:15.168Z,11.67
2019-04-22T03:08:30.307Z,11.10
2019-04-22T03:18:29.116Z,11.53
2019-04-22T03:23:27.326Z,12.00
2019-04-22T03:28:18.726Z,11.63
2019-04-22T03:33:20.042Z,11.90
2019-04-22T03:38:35.556Z,11.30
2019-04-22T03:43:08.536Z,11.63
2019-04-22T03:48:01.929Z,11.77
2019-04-22T03:57:49.626Z,11.70
2019-04-22T04:02:59.555Z,12.43
2019-04-22T04:07:48.447Z,12.20
2019-04-22T04:12:53.387Z,12.13
2019-04-22T04:17:41.441Z,12.27
2019-04-22T04:22:50.684Z,12.60
2019-04-22T04:27:43.190Z,12.50
2019-04-22T04:32:46.089Z,12.77
2019-04-22T04:42:24.528Z,13.00
2019-04-22T04:47:11.776Z,12.80
2019-04-22T04:52:14.490Z,13.27
2019-04-22T04:56:57.005Z,13.00
2019-04-22T05:07:01.579Z,12.87
2019-04-22T05:21:36.344Z,12.50
2019-04-22T05:26:32.857Z,12.73
2019-04-22T05:31:34.747Z,12.07
2019-04-22T05:36:37.580Z,12.63
2019-04-22T05:41:17.728Z,12.53
2019-04-22T05:46:09.151Z,12.23
2019-04-22T05:51:09.760Z,11.57
2019-04-22T05:56:17.512Z,10.43
2019-04-22T06:01:29.108Z,10.03
2019-04-22T06:06:00.887Z,10.13
2019-04-22T06:11:04.310Z,8.83
2019-04-22T06:15:53.011Z,9.48
2019-04-22T06:20:59.405Z,9.28
2019-04-22T06:30:50.286Z,8.55
2019-04-22T06:35:43.900Z,9.10
2019-04-22T06:45:29.133Z,8.43
2019-04-22T06:50:38.502Z,7.92
2019-04-22T06:55:34.424Z,7.92
2019-04-22T07:00:24.583Z,7.37
2019-04-22T07:05:32.948Z,7.10
2019-04-22T07:10:26.463Z,6.92
2019-04-22T07:15:16.216Z,6.67
2019-04-22T07:20:05.570Z,6.55
2019-04-22T07:24:58.292Z,5.80
2019-04-22T07:30:03.988Z,6.53
2019-04-22T07:34:52.823Z,5.85
2019-04-22T07:39:45.597Z,6.53
2019-04-22T07:49:42.731Z,5.83
2019-04-22T07:54:44.928Z,5.90
2019-04-22T07:59:35.120Z,6.03
2019-04-22T08:04:49.388Z,6.47
2019-04-22T08:09:33.999Z,6.10
2019-04-22T08:14:24.608Z,6.22
2019-04-22T08:19:23.549Z,5.58
2019-04-22T08:24:16.522Z,5.70
2019-04-22T08:29:14.513Z,5.85
2019-04-22T08:34:11.277Z,6.05
2019-04-22T08:39:00.710Z,5.85
2019-04-22T08:44:07.622Z,5.42
2019-04-22T08:53:57.496Z,5.50
2019-04-22T08:58:52.316Z,4.97
2019-04-22T09:03:40.104Z,5.72
2019-04-22T09:08:41.857Z,5.60
2019-04-22T09:13:35.622Z,5.20
2019-04-22T09:18:28.788Z,5.50
2019-04-22T09:23:30.312Z,5.05
2019-04-22T09:28:24.610Z,5.20
2019-04-22T09:33:20.906Z,5.28
2019-04-22T09:38:25.703Z,5.22
2019-04-22T09:43:10.091Z,5.55
2019-04-22T09:48:09.860Z,5.37
2019-04-22T09:53:04.947Z,4.70
2019-04-22T09:57:57.153Z,5.25
2019-04-22T10:03:00.948Z,5.33
2019-04-22T10:07:52.501Z,5.72
2019-04-22T10:12:43.184Z,5.15
2019-04-22T10:17:47.415Z,4.55
2019-04-22T10:22:39.937Z,5.50
2019-04-22T10:27:38.372Z,5.17
2019-04-22T10:32:42.049Z,5.00
2019-04-22T10:37:03.217Z,4.83
2019-04-22T10:41:55.085Z,5.33
2019-04-22T10:46:49.785Z,4.37
2019-04-22T10:51:44.491Z,4.78
2019-04-22T10:56:39.008Z,5.58
2019-04-22T11:01:33.841Z,4.85
2019-04-22T11:06:27.860Z,4.75
2019-04-22T11:11:34.828Z,4.58
2019-04-22T11:16:19.374Z,4.70
2019-04-22T11:21:13.795Z,4.25
2019-04-22T11:26:08.203Z,4.22
2019-04-22T11:31:02.763Z,4.85
2019-04-22T11:35:57.567Z,4.75
2019-04-22T11:40:55.504Z,4.67
2019-04-22T11:45:49.220Z,4.12
2019-04-22T11:50:43.959Z,3.98
2019-04-22T11:55:38.417Z,4.05
2019-04-22T12:00:34.769Z,4.50
2019-04-22T12:05:29.979Z,4.05
2019-04-22T12:10:33.227Z,3.95
2019-04-22T12:15:20.442Z,3.95
2019-04-22T12:20:16.526Z,4.25
2019-04-22T12:25:12.716Z,4.37
2019-04-22T12:30:12.131Z,3.65
2019-04-22T12:35:07.375Z,4.00
2019-04-22T12:40:04.254Z,4.37
2019-04-22T12:45:00.363Z,3.65
2019-04-22T12:50:06.886Z,4.05
2019-04-22T12:54:51.039Z,4.72
2019-04-22T12:59:45.708Z,4.42
2019-04-22T13:04:40.540Z,4.45
2019-04-22T13:09:34.577Z,4.40
2019-04-22T13:14:28.612Z,4.47
2019-04-22T13:19:24.611Z,3.98
2019-04-22T13:24:20.105Z,3.70
2019-04-22T13:29:15.067Z,3.47
2019-04-22T13:34:11.815Z,3.45
2019-04-22T13:39:07.009Z,3.80
2019-04-22T13:44:02.044Z,3.95
2019-04-22T13:49:24.013Z,3.37
2019-04-22T13:58:58.911Z,3.62
2019-04-22T14:03:46.893Z,3.60
2019-04-22T14:08:41.094Z,3.70
2019-04-22T14:13:35.061Z,3.75
2019-04-22T14:18:29.116Z,3.80
2019-04-22T14:23:24.324Z,4.50
2019-04-22T14:28:21.188Z,3.70
2019-04-22T14:33:16.090Z,3.25
2019-04-22T14:38:10.323Z,3.60
2019-04-22T14:43:27.309Z,4.30
2019-04-22T14:48:28.667Z,3.15
2019-04-22T14:53:19.462Z,3.30
2019-04-22T14:57:52.923Z,2.90
2019-04-22T15:02:47.941Z,5.30
2019-04-22T15:07:43.393Z,4.55
2019-04-22T15:12:45.718Z,3.70
2019-04-22T15:17:36.819Z,3.80
2019-04-22T15:22:30.987Z,3.50
2019-04-22T15:27:27.867Z,3.27
2019-04-22T15:32:21.281Z,3.45
2019-04-22T15:37:16.056Z,3.52
2019-04-22T15:42:18.433Z,2.85
2019-04-22T15:47:07.021Z,2.98
2019-04-22T15:52:02.978Z,3.08
2019-04-22T15:56:57.194Z,3.20
2019-04-22T16:01:53.159Z,3.40
2019-04-22T16:06:47.327Z,3.08
2019-04-22T16:11:42.291Z,3.20
2019-04-22T16:16:37.157Z,3.70
2019-04-22T16:21:40.539Z,4.08
2019-04-22T16:26:36.051Z,3.35
2019-04-22T16:31:31.325Z,3.12
2019-04-22T16:36:26.920Z,3.30
2019-04-22T16:41:21.254Z,3.02
2019-04-22T16:46:15.942Z,3.20
2019-04-22T16:51:10.126Z,3.10
2019-04-22T16:56:04.759Z,3.75
2019-04-22T17:01:00.664Z,3.37
2019-04-22T17:06:13.927Z,2.92
2019-04-22T17:11:09.566Z,3.00
2019-04-22T17:16:04.866Z,3.27
2019-04-22T17:21:00.562Z,3.10
2019-04-22T17:25:56.510Z,3.00
2019-04-22T17:30:51.877Z,2.92
2019-04-22T17:35:48.204Z,3.00
2019-04-22T17:40:56.292Z,3.00
2019-04-22T17:46:09.068Z,3.05
2019-04-22T17:51:19.126Z,3.20
2019-04-22T17:56:08.752Z,2.98
2019-04-22T18:01:03.644Z,2.90
2019-04-22T18:05:45.882Z,2.90
2019-04-22T18:10:53.933Z,3.25
2019-04-22T18:15:48.858Z,2.80
2019-04-22T18:20:39.061Z,2.75
2019-04-22T18:25:36.341Z,2.77
2019-04-22T18:30:28.805Z,2.80
2019-04-22T18:35:32.368Z,3.30
2019-04-22T18:40:30.792Z,2.75
2019-04-22T18:45:39.656Z,3.05
2019-04-22T18:50:37.116Z,2.85
2019-04-22T18:55:34.229Z,2.80
2019-04-22T19:00:23.319Z,2.95
2019-04-22T19:05:30.518Z,2.92
2019-04-22T19:10:46.307Z,3.17
2019-04-22T19:15:38.327Z,2.90
2019-04-22T19:20:39.271Z,3.00
2019-04-22T19:25:17.453Z,2.90
2019-04-22T19:30:21.953Z,2.60
2019-04-22T19:35:17.201Z,2.87
2019-04-22T19:40:20.840Z,3.10
2019-04-22T19:45:10.697Z,3.15
2019-04-22T19:50:14.545Z,3.10
2019-04-22T19:55:07.599Z,3.40
2019-04-22T19:59:56.290Z,3.30
2019-04-22T20:05:21.998Z,3.10
2019-04-22T20:10:14.895Z,2.80
2019-04-22T20:15:07.127Z,2.90
2019-04-22T20:20:09.516Z,3.10
2019-04-22T20:24:47.486Z,2.75
2019-04-22T20:30:02.479Z,2.77
2019-04-22T20:34:57.643Z,2.52
2019-04-22T20:39:46.880Z,2.62
2019-04-22T20:44:45.938Z,2.50
2019-04-22T20:49:44.518Z,2.58
2019-04-22T20:54:39.099Z,2.90
2019-04-22T20:59:28.449Z,2.95
2019-04-22T21:04:19.745Z,2.62
2019-04-22T21:09:27.308Z,2.70
2019-04-22T21:14:21.258Z,2.90
2019-04-22T21:19:22.049Z,2.67
2019-04-22T21:24:14.007Z,3.12
2019-04-22T21:29:09.870Z,2.90
2019-04-22T21:34:03.941Z,2.58
2019-04-22T21:39:00.863Z,2.42
2019-04-22T21:44:02.259Z,2.50
2019-04-22T21:48:57.801Z,2.65
2019-04-22T21:54:02.046Z,2.60
2019-04-22T21:58:54.571Z,2.50
2019-04-22T22:03:47.796Z,2.30
2019-04-22T22:08:48.912Z,2.47
2019-04-22T22:13:44.467Z,2.70
2019-04-22T22:18:29.995Z,2.35
2019-04-22T22:23:38.796Z,2.72
2019-04-22T22:28:46.879Z,2.45
2019-04-22T22:33:26.250Z,2.50
2019-04-22T22:38:19.599Z,2.60
2019-04-22T22:42:58.956Z,2.35
2019-04-22T22:48:24.077Z,2.37
2019-04-22T22:58:08.219Z,2.65
2019-04-22T23:03:27.440Z,2.30
2019-04-22T23:07:58.766Z,2.60
2019-04-22T23:12:55.632Z,2.30
2019-04-22T23:17:31.316Z,2.47
2019-04-22T23:22:31.244Z,2.55
2019-04-22T23:27:47.707Z,2.40
2019-04-22T23:32:40.020Z,2.33
2019-04-22T23:37:47.905Z,2.60
2019-04-22T23:42:44.645Z,2.45
2019-04-22T23:47:31.214Z,2.50
2019-04-22T23:52:48.199Z,2.72
2019-04-22T23:57:46.970Z,2.65
